Pagrindinis puslapis
METAR-TAF:

METAR-TAF

Oro uostai :

Oklandas, Naujoji Zelandija

platuma: 37-01S, ilguma: 174-48E, Aukštis: 7 m

Dabartinis oras

Ataskaita buvo paskelbta 33 minutes, ne 21:30 UTC
Vėjas 5 kt iš Šiaurės, svyruoja nuo Šiaurės Vakarų ir Rytų
Temperatūra 25°C
Drėgmė 61%
Slėgis 1013 hPa
Matomumas 10 km arba daugiau

METAR: NZAA 202130Z AUTO 01005KT 320V080 9999 NCD 25/17 Q1013 NOSIG

Laikas: 11:03 (22:03 UTC)

Prognozė

Ataskaita buvo paskelbta 5 valandos ir 2 minutes, ne 17:01 UTC
Prognozė galioja nuo 20 metu 18 UTC su 21 metu 18 UTC
Vėjas 8 kt iš Šiaurės/Šiaurės Rytų
Matomumas 10 km arba daugiau
Mažai debesys ne aukštis 3500 ft
Tikimybė 30% :
Laikinai
nuo 21 metu 02 UTC su 21 metu 06 UTC
Matomumas: 8000 m
lietus

TAF: NZAA 201701Z 2018/2118 03008KT 9999 FEW035 PROB30 TEMPO 2102/2106 8000 SHRA

Orai ataskaitas ir orų prognozės (METAR, TAF).

turimą stotys yra geltonos ir raudonos taškus žemėlapyje.

Perkelti pele per norėdami pamatyti stoties vardą.

Tada spustelėkite, norėdami matyti oro stebėjimo ir prognozės.

Norėdami pakeisti žemėlapį: spustelėkite ant žalios mygtukų su juodo kryžiaus žemyn,; žalią mygtuką su brūkšneliu, jei norite nutolinti; arba žalių rodyklių gretimoms žemėlapius.


METAR-TAF: